Terminal Aerodrome Forecast
Issued by NWS

Home | Current Version | Previous Version | Text Only | Print | Product List | Glossary On
Versions: 1 2 3 4 5 6 7 8 9 10 11 12 13 14 15 16 17 18 19
000
FTUS45 KGJT 200013 AAA
TAFRIL
TAF AMD
KRIL 200013Z 2000/2024 27012KT P6SM VCSH SCT070 BKN100
      TEMPO 2000/2001 VRB15G25KT -SHRA BKN050
     FM200130 20009KT P6SM VCSH SCT060 BKN100
     FM200600 17003KT P6SM BKN120
     FM201200 VRB03KT P6SM FEW120 SCT250
     FM201800 31006KT P6SM FEW070 SCT120=

USA.gov is the U.S. government's official web portal to all federal, state and local government web resources and services.